createdAt,value
2018-06-30T00:01:41.764Z,99.90
2018-06-30T00:06:40.186Z,99.90
2018-06-30T00:09:09.736Z,99.90
2018-06-30T00:11:38.911Z,99.90
2018-06-30T00:14:08.422Z,99.90
2018-06-30T00:16:37.600Z,99.90
2018-06-30T00:19:06.853Z,99.90
2018-06-30T00:21:36.292Z,99.90
2018-06-30T00:24:05.414Z,99.90
2018-06-30T00:26:34.644Z,99.90
2018-06-30T00:29:04.266Z,99.90
2018-06-30T00:31:33.386Z,99.90
2018-06-30T00:34:02.591Z,99.90
2018-06-30T00:36:32.279Z,99.90
2018-06-30T00:39:01.428Z,99.90
2018-06-30T00:41:30.576Z,99.90
2018-06-30T00:44:00.034Z,99.90
2018-06-30T00:46:29.596Z,99.90
2018-06-30T00:51:27.458Z,99.90
2018-06-30T00:53:56.878Z,99.90
2018-06-30T00:56:25.986Z,99.90
2018-06-30T00:58:55.152Z,99.90
2018-06-30T01:01:24.364Z,99.90
2018-06-30T01:03:53.479Z,99.90
2018-06-30T01:08:51.874Z,99.90
2018-06-30T01:11:21.018Z,99.90
2018-06-30T01:13:50.132Z,99.90
2018-06-30T01:16:19.654Z,99.90
2018-06-30T01:18:48.798Z,99.90
2018-06-30T01:21:18.094Z,99.90
2018-06-30T01:23:47.698Z,99.90
2018-06-30T01:26:16.850Z,99.90
2018-06-30T01:28:46.077Z,99.90
2018-06-30T01:31:15.454Z,99.90
2018-06-30T01:33:44.534Z,99.90
2018-06-30T01:36:13.714Z,99.90
2018-06-30T01:38:43.522Z,99.90
2018-06-30T01:41:13.343Z,99.90
2018-06-30T01:43:42.501Z,99.90
2018-06-30T01:46:12.038Z,99.90
2018-06-30T01:48:42.132Z,99.90
2018-06-30T01:51:11.332Z,99.90
2018-06-30T01:53:40.837Z,99.90
2018-06-30T01:56:09.983Z,99.90
2018-06-30T01:58:39.129Z,99.90
2018-06-30T02:01:08.706Z,99.90
2018-06-30T02:03:37.806Z,99.90
2018-06-30T02:06:07.588Z,99.90
2018-06-30T02:08:36.789Z,99.90
2018-06-30T02:11:06.341Z,99.90
2018-06-30T02:13:35.440Z,99.90
2018-06-30T02:16:05.154Z,99.90
2018-06-30T02:18:34.299Z,99.90
2018-06-30T02:21:04.368Z,99.90
2018-06-30T02:23:33.852Z,99.90
2018-06-30T02:26:03.076Z,99.90
2018-06-30T02:31:01.452Z,99.90
2018-06-30T02:33:30.703Z,99.90
2018-06-30T02:35:59.874Z,99.90
2018-06-30T02:38:29.313Z,99.90
2018-06-30T02:40:58.786Z,99.90
2018-06-30T02:43:27.898Z,99.90
2018-06-30T02:45:57.219Z,99.90
2018-06-30T02:48:26.318Z,99.90
2018-06-30T02:50:56.170Z,99.90
2018-06-30T02:53:25.718Z,99.90
2018-06-30T02:55:54.883Z,99.90
2018-06-30T02:58:24.010Z,99.90
2018-06-30T03:00:53.288Z,99.90
2018-06-30T03:03:22.407Z,99.90
2018-06-30T03:05:51.540Z,99.90
2018-06-30T03:08:21.019Z,99.90
2018-06-30T03:10:50.216Z,99.90
2018-06-30T03:13:19.311Z,99.90
2018-06-30T03:15:48.804Z,99.90
2018-06-30T03:18:18.011Z,99.90
2018-06-30T03:20:47.114Z,99.90
2018-06-30T03:25:45.208Z,99.90
2018-06-30T03:28:14.490Z,99.90
2018-06-30T03:30:43.972Z,99.90
2018-06-30T03:33:13.114Z,99.90
2018-06-30T03:35:42.258Z,99.90
2018-06-30T03:38:11.969Z,99.90
2018-06-30T03:40:41.176Z,99.90
2018-06-30T03:43:10.422Z,99.90
2018-06-30T03:45:39.954Z,99.90
2018-06-30T03:48:09.060Z,99.90
2018-06-30T03:50:38.158Z,99.90
2018-06-30T03:53:07.692Z,99.90
2018-06-30T03:55:36.880Z,99.90
2018-06-30T03:58:06.164Z,99.90
2018-06-30T04:00:35.596Z,99.90
2018-06-30T04:03:04.776Z,99.90
2018-06-30T04:05:33.882Z,99.90
2018-06-30T04:08:03.628Z,99.90
2018-06-30T04:10:32.749Z,99.90
2018-06-30T04:13:02.590Z,99.90
2018-06-30T04:15:32.002Z,99.90
2018-06-30T04:18:01.105Z,99.90
2018-06-30T04:20:30.240Z,99.90
2018-06-30T04:23:06.336Z,99.90
2018-06-30T04:25:35.607Z,99.90
2018-06-30T04:28:04.688Z,99.90
2018-06-30T04:33:02.790Z,99.90
2018-06-30T04:35:31.898Z,99.90
2018-06-30T04:38:01.518Z,99.90
2018-06-30T04:40:30.634Z,99.90
2018-06-30T04:42:59.902Z,99.90
2018-06-30T04:45:29.926Z,99.90
2018-06-30T04:47:59.335Z,99.90
2018-06-30T04:50:28.478Z,99.90
2018-06-30T04:52:57.730Z,99.90
2018-06-30T04:55:28.132Z,99.90
2018-06-30T04:57:57.262Z,99.90
2018-06-30T05:00:26.396Z,99.90
2018-06-30T05:02:56.174Z,99.90
2018-06-30T05:05:25.359Z,99.90
2018-06-30T05:07:54.618Z,99.90
2018-06-30T05:10:24.196Z,99.90
2018-06-30T05:12:53.444Z,99.90
2018-06-30T05:15:23.436Z,99.90
2018-06-30T05:17:53.588Z,99.90
2018-06-30T05:20:22.788Z,99.90
2018-06-30T05:22:51.952Z,99.90
2018-06-30T05:25:21.166Z,99.90
2018-06-30T05:27:50.332Z,99.90
2018-06-30T05:32:49.048Z,99.90
2018-06-30T05:35:18.399Z,99.90
2018-06-30T05:37:47.604Z,99.90
2018-06-30T05:40:16.893Z,99.90
2018-06-30T05:42:46.002Z,99.90
2018-06-30T05:45:15.238Z,99.90
2018-06-30T05:47:45.514Z,99.90
2018-06-30T05:50:14.652Z,99.90
2018-06-30T06:00:10.424Z,99.90
2018-06-30T06:02:39.896Z,99.90
2018-06-30T06:05:09.075Z,99.90
2018-06-30T06:07:39.202Z,99.90
2018-06-30T06:10:08.516Z,99.90
2018-06-30T06:12:37.694Z,99.90
2018-06-30T06:15:06.818Z,99.90
2018-06-30T06:17:36.281Z,99.90
2018-06-30T06:20:06.772Z,99.90
2018-06-30T06:22:36.131Z,99.90
2018-06-30T06:25:05.429Z,99.90
2018-06-30T06:27:34.835Z,99.90
2018-06-30T06:30:05.224Z,99.90
2018-06-30T06:32:34.993Z,99.90
2018-06-30T06:35:04.745Z,99.90
2018-06-30T06:37:33.853Z,99.90
2018-06-30T06:40:02.985Z,99.90
2018-06-30T06:42:32.433Z,99.90
2018-06-30T06:45:01.567Z,99.90
2018-06-30T06:47:31.001Z,99.90
2018-06-30T06:52:29.204Z,99.90
2018-06-30T06:54:58.294Z,99.90
2018-06-30T06:59:56.425Z,99.90
2018-06-30T07:02:25.555Z,99.90
2018-06-30T07:04:54.880Z,99.90
2018-06-30T07:12:21.851Z,99.90
2018-06-30T07:22:17.443Z,99.90
2018-06-30T07:24:46.613Z,99.90
2018-06-30T07:27:16.119Z,99.90
2018-06-30T07:29:45.222Z,99.90
2018-06-30T07:32:14.365Z,99.90
2018-06-30T07:34:44.019Z,99.90
2018-06-30T07:39:41.869Z,99.90
2018-06-30T07:42:11.107Z,99.90
2018-06-30T07:44:40.341Z,99.90
2018-06-30T07:47:09.491Z,99.90
2018-06-30T07:49:38.861Z,99.90
2018-06-30T07:52:08.655Z,99.90
2018-06-30T07:54:37.789Z,99.90
2018-06-30T07:57:07.055Z,99.90
2018-06-30T07:59:36.200Z,99.90
2018-06-30T08:02:05.914Z,99.90
2018-06-30T08:04:35.167Z,99.90
2018-06-30T08:07:04.369Z,99.90
2018-06-30T08:09:33.663Z,99.90
2018-06-30T08:12:03.112Z,99.90
2018-06-30T08:14:32.339Z,99.90
2018-06-30T08:17:01.443Z,99.90
2018-06-30T08:19:30.728Z,99.90
2018-06-30T08:22:00.057Z,99.90
2018-06-30T08:24:29.242Z,99.90
2018-06-30T08:26:58.545Z,99.90
2018-06-30T08:29:27.834Z,99.90
2018-06-30T08:31:57.165Z,99.90
2018-06-30T08:34:26.671Z,99.90
2018-06-30T08:36:55.833Z,99.90
2018-06-30T08:39:24.974Z,99.90
2018-06-30T08:41:54.521Z,99.90
2018-06-30T08:44:23.667Z,99.90
2018-06-30T08:46:52.846Z,99.90
2018-06-30T08:49:22.415Z,99.90
2018-06-30T08:51:51.667Z,99.90
2018-06-30T08:54:20.913Z,99.90
2018-06-30T08:56:50.189Z,99.90
2018-06-30T08:59:19.338Z,99.90
2018-06-30T09:01:48.508Z,99.90
2018-06-30T09:04:17.707Z,99.90
2018-06-30T09:06:46.861Z,99.90
2018-06-30T09:09:16.111Z,99.90
2018-06-30T09:11:45.776Z,99.90
2018-06-30T09:14:14.869Z,99.90
2018-06-30T09:16:44.057Z,99.90
2018-06-30T09:19:13.669Z,99.90
2018-06-30T09:21:43.320Z,99.90
2018-06-30T09:24:12.622Z,99.90
2018-06-30T09:26:41.799Z,99.90
2018-06-30T09:29:11.134Z,99.90
2018-06-30T09:31:40.341Z,99.90
2018-06-30T09:34:09.761Z,99.90
2018-06-30T09:36:38.875Z,99.90
2018-06-30T09:39:09.829Z,99.90
2018-06-30T09:41:39.745Z,99.90
2018-06-30T09:44:09.437Z,99.90
2018-06-30T09:46:38.705Z,99.90
2018-06-30T09:49:07.971Z,99.90
2018-06-30T09:51:37.078Z,99.90
2018-06-30T09:54:06.343Z,99.90
2018-06-30T09:59:04.735Z,99.90
2018-06-30T10:01:34.297Z,99.50
2018-06-30T10:04:03.546Z,98.90
2018-06-30T10:09:01.368Z,98.80
2018-06-30T10:11:30.813Z,98.30
2018-06-30T10:13:59.971Z,98.10
2018-06-30T10:16:29.063Z,97.30
2018-06-30T10:18:58.239Z,97.40
2018-06-30T10:21:27.399Z,97.50
2018-06-30T10:23:56.637Z,97.20
2018-06-30T10:26:25.904Z,96.80
2018-06-30T10:28:55.204Z,95.60
2018-06-30T10:31:24.311Z,95.40
2018-06-30T10:36:22.316Z,95.30
2018-06-30T10:38:51.453Z,95.60
2018-06-30T10:41:20.838Z,95.30
2018-06-30T10:43:50.023Z,94.70
2018-06-30T10:46:19.726Z,94.70
2018-06-30T10:48:49.518Z,94.70
2018-06-30T10:51:18.661Z,94.70
2018-06-30T10:53:47.795Z,94.40
2018-06-30T10:56:17.534Z,93.60
2018-06-30T10:58:46.796Z,94.70
2018-06-30T11:01:15.932Z,94.90
2018-06-30T11:03:45.534Z,93.70
2018-06-30T11:08:43.450Z,92.80
2018-06-30T11:11:12.748Z,92.60
2018-06-30T11:13:41.956Z,92.10
2018-06-30T11:16:11.144Z,92.10
2018-06-30T11:18:40.652Z,93.00
2018-06-30T11:21:09.924Z,91.40
2018-06-30T11:23:39.087Z,91.60
2018-06-30T11:26:08.434Z,91.50
2018-06-30T11:28:37.831Z,91.70
2018-06-30T11:31:07.491Z,90.80
2018-06-30T11:33:36.733Z,90.30
2018-06-30T11:36:05.997Z,90.60
2018-06-30T11:38:35.172Z,88.60
2018-06-30T11:41:04.700Z,86.70
2018-06-30T11:43:33.841Z,84.20
2018-06-30T11:46:02.985Z,84.70
2018-06-30T11:51:01.005Z,84.30
2018-06-30T11:53:30.195Z,85.30
2018-06-30T11:55:59.385Z,82.00
2018-06-30T11:58:28.563Z,77.80
2018-06-30T12:00:57.949Z,79.80
2018-06-30T12:03:27.395Z,82.20
2018-06-30T12:05:56.541Z,84.10
2018-06-30T12:08:26.269Z,79.60
2018-06-30T12:10:55.717Z,77.90
2018-06-30T12:13:24.917Z,76.40
2018-06-30T12:15:54.055Z,76.90
2018-06-30T12:18:23.662Z,76.90
2018-06-30T12:20:52.927Z,76.90
2018-06-30T12:23:22.091Z,75.00
2018-06-30T12:25:51.827Z,78.00
2018-06-30T12:28:21.035Z,76.70
2018-06-30T12:30:51.056Z,74.60
2018-06-30T12:33:20.200Z,72.60
2018-06-30T12:35:49.497Z,70.00
2018-06-30T12:38:18.674Z,70.20
2018-06-30T12:40:47.886Z,72.10
2018-06-30T12:43:17.150Z,68.10
2018-06-30T12:45:46.314Z,70.60
2018-06-30T12:48:15.410Z,68.00
2018-06-30T12:50:44.667Z,63.00
2018-06-30T12:53:13.782Z,64.20
2018-06-30T12:58:12.122Z,62.80
2018-06-30T13:00:41.272Z,62.30
2018-06-30T13:03:10.740Z,62.20
2018-06-30T13:05:40.252Z,63.10
2018-06-30T13:08:09.357Z,65.40
2018-06-30T13:10:38.534Z,65.70
2018-06-30T13:13:07.850Z,64.80
2018-06-30T13:15:36.960Z,63.40
2018-06-30T13:18:06.224Z,62.00
2018-06-30T13:20:35.964Z,62.20
2018-06-30T13:23:05.336Z,61.60
2018-06-30T13:25:34.514Z,60.70
2018-06-30T13:28:04.009Z,60.40
2018-06-30T13:30:33.120Z,60.30
2018-06-30T13:33:02.222Z,58.20
2018-06-30T13:35:31.458Z,60.60
2018-06-30T13:38:00.640Z,59.40
2018-06-30T13:40:29.910Z,59.50
2018-06-30T13:42:59.413Z,58.80
2018-06-30T13:45:28.541Z,60.20
2018-06-30T13:47:57.735Z,61.50
2018-06-30T13:50:27.128Z,59.70
2018-06-30T13:52:56.400Z,58.50
2018-06-30T13:55:26.564Z,57.60
2018-06-30T13:57:56.220Z,57.10
2018-06-30T14:02:54.107Z,56.30
2018-06-30T14:05:23.502Z,57.00
2018-06-30T14:07:52.628Z,57.70
2018-06-30T14:10:21.809Z,55.30
2018-06-30T14:12:51.287Z,54.30
2018-06-30T14:15:20.392Z,53.40
2018-06-30T14:17:49.475Z,52.20
2018-06-30T14:20:18.812Z,53.60
2018-06-30T14:22:47.944Z,52.40
2018-06-30T14:25:17.677Z,53.40
2018-06-30T14:27:47.166Z,53.40
2018-06-30T14:30:16.584Z,53.30
2018-06-30T14:32:45.708Z,52.10
2018-06-30T14:35:15.166Z,52.70
2018-06-30T14:37:44.412Z,52.20
2018-06-30T14:42:42.677Z,51.40
2018-06-30T14:45:11.856Z,50.80
2018-06-30T14:47:41.060Z,51.50
2018-06-30T14:50:10.953Z,51.50
2018-06-30T14:52:40.079Z,50.00
2018-06-30T14:55:09.410Z,51.60
2018-06-30T14:57:38.628Z,52.50
2018-06-30T15:00:08.719Z,49.80
2018-06-30T15:02:38.280Z,49.70
2018-06-30T15:05:08.626Z,50.20
2018-06-30T15:07:37.919Z,51.80
2018-06-30T15:10:07.824Z,50.60
2018-06-30T15:12:37.212Z,49.40
2018-06-30T15:15:06.550Z,49.90
2018-06-30T15:17:35.636Z,50.40
2018-06-30T15:22:33.704Z,50.50
2018-06-30T15:25:02.904Z,50.00
2018-06-30T15:27:32.224Z,49.90
2018-06-30T15:30:01.586Z,48.20
2018-06-30T15:32:30.944Z,49.00
2018-06-30T15:35:00.273Z,51.10
2018-06-30T15:37:29.396Z,49.40
2018-06-30T15:39:58.550Z,49.80
2018-06-30T15:42:28.100Z,48.30
2018-06-30T15:44:57.307Z,47.90
2018-06-30T15:47:26.496Z,48.00
2018-06-30T15:49:55.902Z,47.50
2018-06-30T15:52:25.004Z,48.80
2018-06-30T15:54:54.150Z,48.40
2018-06-30T15:57:23.806Z,48.80
2018-06-30T15:59:52.961Z,48.10
2018-06-30T16:02:22.801Z,48.30
2018-06-30T16:04:52.348Z,46.50
2018-06-30T16:09:50.558Z,49.40
2018-06-30T16:12:20.030Z,49.50
2018-06-30T16:14:49.198Z,47.40
2018-06-30T16:17:18.486Z,47.10
2018-06-30T16:19:47.653Z,46.60
2018-06-30T16:22:17.604Z,48.10
2018-06-30T16:24:46.758Z,47.00
2018-06-30T16:27:16.018Z,45.70
2018-06-30T16:29:45.323Z,45.60
2018-06-30T16:32:14.432Z,45.80
2018-06-30T16:34:43.996Z,45.00
2018-06-30T16:37:13.200Z,43.90
2018-06-30T16:39:42.917Z,45.00
2018-06-30T16:42:12.414Z,45.20
2018-06-30T16:44:41.489Z,45.10
2018-06-30T16:47:10.730Z,44.50
2018-06-30T16:49:39.958Z,42.70
2018-06-30T16:52:09.042Z,44.10
2018-06-30T16:54:38.124Z,44.30
2018-06-30T16:57:08.076Z,45.20
2018-06-30T16:59:37.154Z,46.80
2018-06-30T17:02:06.302Z,46.30
2018-06-30T17:04:35.622Z,45.40
2018-06-30T17:07:04.816Z,45.40
2018-06-30T17:09:34.686Z,45.60
2018-06-30T17:12:04.190Z,46.90
2018-06-30T17:14:33.389Z,45.00
2018-06-30T17:17:02.484Z,45.90
2018-06-30T17:19:31.812Z,45.70
2018-06-30T17:22:00.892Z,44.40
2018-06-30T17:24:30.040Z,45.20
2018-06-30T17:26:59.302Z,45.40
2018-06-30T17:29:28.451Z,46.00
2018-06-30T17:31:57.630Z,46.30
2018-06-30T17:34:26.828Z,47.20
2018-06-30T17:36:56.003Z,47.60
2018-06-30T17:39:25.720Z,48.00
2018-06-30T17:44:23.958Z,47.80
2018-06-30T17:46:53.032Z,47.60
2018-06-30T17:49:22.470Z,45.50
2018-06-30T17:51:51.746Z,48.10
2018-06-30T17:54:20.934Z,48.60
2018-06-30T17:56:50.813Z,48.00
2018-06-30T17:59:20.213Z,49.60
2018-06-30T18:01:49.334Z,50.30
2018-06-30T18:04:18.742Z,49.70
2018-06-30T18:06:47.839Z,48.00
2018-06-30T18:09:16.922Z,52.10
2018-06-30T18:11:46.444Z,51.80
2018-06-30T18:14:16.143Z,52.10
2018-06-30T18:16:45.256Z,52.20
2018-06-30T18:24:12.236Z,51.60
2018-06-30T18:26:41.494Z,51.20
2018-06-30T18:29:10.645Z,51.00
2018-06-30T18:31:39.762Z,53.30
2018-06-30T18:34:09.144Z,55.10
2018-06-30T18:36:38.324Z,56.20
2018-06-30T18:39:09.867Z,56.60
2018-06-30T18:41:38.902Z,58.00
2018-06-30T18:44:08.074Z,57.60
2018-06-30T18:46:37.410Z,58.30
2018-06-30T18:49:06.594Z,59.00
2018-06-30T18:51:35.704Z,59.80
2018-06-30T18:54:06.106Z,60.00
2018-06-30T18:56:35.233Z,61.90
2018-06-30T18:59:04.382Z,62.60
2018-06-30T19:01:33.674Z,63.20
2018-06-30T19:04:02.984Z,64.20
2018-06-30T19:06:32.143Z,64.10
2018-06-30T19:09:01.447Z,64.80
2018-06-30T19:13:59.344Z,64.30
2018-06-30T19:16:28.884Z,64.70
2018-06-30T19:18:58.042Z,65.50
2018-06-30T19:26:24.666Z,68.50
2018-06-30T19:28:53.898Z,67.80
2018-06-30T19:31:23.184Z,67.80
2018-06-30T19:33:52.315Z,67.90
2018-06-30T19:36:21.491Z,67.10
2018-06-30T19:38:50.770Z,67.30
2018-06-30T19:41:19.876Z,68.10
2018-06-30T19:43:49.131Z,68.70
2018-06-30T19:46:18.486Z,67.40
2018-06-30T19:48:48.394Z,67.60
2018-06-30T19:53:46.651Z,69.30
2018-06-30T19:56:15.759Z,69.30
2018-06-30T19:58:44.902Z,69.10
2018-06-30T20:01:14.522Z,68.80
2018-06-30T20:03:43.654Z,70.10
2018-06-30T20:06:12.824Z,70.10
2018-06-30T20:08:42.003Z,70.80
2018-06-30T20:11:11.958Z,71.60
2018-06-30T20:13:41.104Z,71.30
2018-06-30T20:18:39.694Z,71.90
2018-06-30T20:21:11.839Z,72.40
2018-06-30T20:23:41.334Z,73.60
2018-06-30T20:26:10.465Z,73.10
2018-06-30T20:28:40.565Z,73.40
2018-06-30T20:31:09.853Z,73.80
2018-06-30T20:33:38.968Z,74.00
2018-06-30T20:36:08.239Z,73.70
2018-06-30T20:38:37.495Z,75.10
2018-06-30T20:41:06.752Z,75.50
2018-06-30T20:43:35.906Z,75.40
2018-06-30T20:46:05.704Z,76.40
2018-06-30T20:48:34.846Z,77.00
2018-06-30T20:51:04.000Z,76.90
2018-06-30T20:53:33.486Z,77.10
2018-06-30T20:56:02.662Z,77.20
2018-06-30T20:58:31.772Z,77.00
2018-06-30T21:01:01.167Z,76.20
2018-06-30T21:03:30.903Z,77.00
2018-06-30T21:06:00.042Z,77.90
2018-06-30T21:08:29.572Z,76.90
2018-06-30T21:10:58.731Z,78.30
2018-06-30T21:13:27.933Z,77.80
2018-06-30T21:15:57.858Z,78.20
2018-06-30T21:18:26.995Z,78.80
2018-06-30T21:20:56.642Z,79.20
2018-06-30T21:23:26.160Z,78.80
2018-06-30T21:25:55.605Z,78.40
2018-06-30T21:28:24.687Z,78.60
2018-06-30T21:30:53.978Z,79.40
2018-06-30T21:33:23.120Z,79.80
2018-06-30T21:35:52.259Z,80.20
2018-06-30T21:38:21.567Z,80.00
2018-06-30T21:45:48.267Z,80.20
2018-06-30T21:48:17.373Z,81.00
2018-06-30T21:50:46.633Z,81.10
2018-06-30T21:53:16.186Z,81.40
2018-06-30T21:55:45.311Z,80.70
2018-06-30T21:58:14.455Z,81.30
2018-06-30T22:03:21.856Z,79.80
2018-06-30T22:05:52.345Z,79.30
2018-06-30T22:08:21.592Z,80.00
2018-06-30T22:13:20.265Z,80.20
2018-06-30T22:15:50.012Z,80.80
2018-06-30T22:20:48.287Z,81.30
2018-06-30T22:25:46.723Z,81.80
2018-06-30T22:28:16.231Z,81.90
2018-06-30T22:30:45.391Z,82.50
2018-06-30T22:33:14.639Z,82.10
2018-06-30T22:35:44.189Z,83.00
2018-06-30T22:38:13.286Z,82.50
2018-06-30T22:40:42.449Z,82.50
2018-06-30T22:43:11.667Z,83.40
2018-06-30T22:45:40.855Z,83.40
2018-06-30T22:48:10.034Z,84.60
2018-06-30T22:50:39.619Z,83.60
2018-06-30T22:53:08.811Z,83.40
2018-06-30T22:55:37.970Z,83.90
2018-06-30T22:58:07.207Z,84.40
2018-06-30T23:00:36.383Z,83.80
2018-06-30T23:03:12.835Z,83.70
2018-06-30T23:08:11.290Z,83.40
2018-06-30T23:10:41.695Z,83.40
2018-06-30T23:13:10.841Z,83.90
2018-06-30T23:15:41.501Z,83.80
2018-06-30T23:18:11.067Z,83.70
2018-06-30T23:20:40.240Z,84.20
2018-06-30T23:23:11.125Z,84.50
2018-06-30T23:25:42.091Z,84.40
2018-06-30T23:33:08.987Z,85.10
2018-06-30T23:35:38.339Z,85.00
2018-06-30T23:40:36.119Z,85.00
2018-06-30T23:43:05.750Z,85.40
2018-06-30T23:45:35.050Z,85.40
2018-06-30T23:48:04.485Z,85.70
2018-06-30T23:50:34.137Z,86.60
2018-06-30T23:53:04.140Z,86.30
2018-06-30T23:55:33.305Z,87.50
2018-06-30T23:58:03.172Z,86.60
